sensor_id;sensor_type;location;lat;lon;timestamp;pressure;altitude;pressure_sealevel;temperature;humidity
21706;BME280;11014;53.076;18.208;2023-03-22T00:01:46;101093.75;;;12.24;65.71
21706;BME280;11014;53.076;18.208;2023-03-22T00:04:14;101082.38;;;12.22;65.63
21706;BME280;11014;53.076;18.208;2023-03-22T00:06:43;101083.91;;;12.18;65.82
21706;BME280;11014;53.076;18.208;2023-03-22T00:09:12;101081.28;;;12.11;65.62
21706;BME280;11014;53.076;18.208;2023-03-22T00:11:40;101083.59;;;12.08;65.60
21706;BME280;11014;53.076;18.208;2023-03-22T00:14:09;101073.53;;;12.03;65.77
21706;BME280;11014;53.076;18.208;2023-03-22T00:16:37;101078.09;;;12.03;66.03
21706;BME280;11014;53.076;18.208;2023-03-22T00:19:06;101073.91;;;12.07;65.92
21706;BME280;11014;53.076;18.208;2023-03-22T00:21:35;101071.22;;;12.07;66.05
21706;BME280;11014;53.076;18.208;2023-03-22T00:24:03;101070.75;;;12.10;65.82
21706;BME280;11014;53.076;18.208;2023-03-22T00:26:32;101076.72;;;12.12;66.05
21706;BME280;11014;53.076;18.208;2023-03-22T00:29:00;101063.03;;;12.13;66.17
21706;BME280;11014;53.076;18.208;2023-03-22T00:31:30;101062.22;;;12.13;66.10
21706;BME280;11014;53.076;18.208;2023-03-22T00:33:59;101065.72;;;12.13;66.04
21706;BME280;11014;53.076;18.208;2023-03-22T00:36:27;101062.34;;;12.18;66.14
21706;BME280;11014;53.076;18.208;2023-03-22T00:38:56;101063.97;;;12.19;66.21
21706;BME280;11014;53.076;18.208;2023-03-22T00:41:25;101067.28;;;12.21;65.95
21706;BME280;11014;53.076;18.208;2023-03-22T00:43:53;101065.03;;;12.18;66.16
21706;BME280;11014;53.076;18.208;2023-03-22T00:46:39;101058.00;;;12.17;66.29
21706;BME280;11014;53.076;18.208;2023-03-22T00:49:07;101060.13;;;12.15;66.73
21706;BME280;11014;53.076;18.208;2023-03-22T00:51:36;101051.56;;;12.18;66.58
21706;BME280;11014;53.076;18.208;2023-03-22T00:54:05;101052.16;;;12.20;66.61
21706;BME280;11014;53.076;18.208;2023-03-22T00:56:34;101051.78;;;12.16;66.91
21706;BME280;11014;53.076;18.208;2023-03-22T00:59:22;101050.16;;;12.15;66.67
21706;BME280;11014;53.076;18.208;2023-03-22T01:01:51;101045.00;;;12.14;66.78
21706;BME280;11014;53.076;18.208;2023-03-22T01:04:20;101048.16;;;12.11;66.62
21706;BME280;11014;53.076;18.208;2023-03-22T01:06:53;101050.72;;;12.06;67.17
21706;BME280;11014;53.076;18.208;2023-03-22T01:09:29;101044.50;;;12.05;66.69
21706;BME280;11014;53.076;18.208;2023-03-22T01:12:01;101040.94;;;12.23;66.71
21706;BME280;11014;53.076;18.208;2023-03-22T01:14:29;101043.69;;;12.05;66.54
21706;BME280;11014;53.076;18.208;2023-03-22T01:16:59;101037.38;;;11.99;66.84
21706;BME280;11014;53.076;18.208;2023-03-22T01:19:28;101024.69;;;12.00;66.91
21706;BME280;11014;53.076;18.208;2023-03-22T01:21:57;101028.00;;;12.02;66.89
21706;BME280;11014;53.076;18.208;2023-03-22T01:24:25;101025.91;;;12.04;67.00
21706;BME280;11014;53.076;18.208;2023-03-22T01:26:55;101016.28;;;12.08;67.06
21706;BME280;11014;53.076;18.208;2023-03-22T01:29:24;101018.53;;;12.11;66.71
21706;BME280;11014;53.076;18.208;2023-03-22T01:31:52;101013.50;;;12.14;66.74
21706;BME280;11014;53.076;18.208;2023-03-22T01:34:21;101011.19;;;12.18;66.41
21706;BME280;11014;53.076;18.208;2023-03-22T01:36:51;100999.13;;;12.20;66.51
21706;BME280;11014;53.076;18.208;2023-03-22T01:39:20;100997.84;;;12.23;66.32
21706;BME280;11014;53.076;18.208;2023-03-22T01:41:52;100990.34;;;12.25;66.51
21706;BME280;11014;53.076;18.208;2023-03-22T01:44:21;100984.94;;;12.25;66.52
21706;BME280;11014;53.076;18.208;2023-03-22T01:46:53;100982.84;;;12.27;66.11
21706;BME280;11014;53.076;18.208;2023-03-22T01:49:27;100980.75;;;12.29;66.30
21706;BME280;11014;53.076;18.208;2023-03-22T01:52:01;100979.22;;;12.33;66.19
21706;BME280;11014;53.076;18.208;2023-03-22T01:54:49;100976.06;;;12.36;65.98
21706;BME280;11014;53.076;18.208;2023-03-22T01:57:28;100969.75;;;12.54;65.58
21706;BME280;11014;53.076;18.208;2023-03-22T02:00:01;100966.94;;;12.37;65.35
21706;BME280;11014;53.076;18.208;2023-03-22T02:02:46;100968.31;;;12.28;65.92
21706;BME280;11014;53.076;18.208;2023-03-22T02:05:24;100963.19;;;12.26;65.78
21706;BME280;11014;53.076;18.208;2023-03-22T02:07:57;100966.69;;;12.27;66.03
21706;BME280;11014;53.076;18.208;2023-03-22T02:10:27;100966.22;;;12.30;65.78
21706;BME280;11014;53.076;18.208;2023-03-22T02:16:55;100955.22;;;12.43;65.48
21706;BME280;11014;53.076;18.208;2023-03-22T02:19:46;100946.53;;;12.41;65.42
21706;BME280;11014;53.076;18.208;2023-03-22T02:22:41;100958.50;;;12.45;65.37
21706;BME280;11014;53.076;18.208;2023-03-22T02:25:54;100955.22;;;12.43;65.44
21706;BME280;11014;53.076;18.208;2023-03-22T02:40:39;100960.50;;;12.49;65.02
21706;BME280;11014;53.076;18.208;2023-03-22T02:43:20;100955.91;;;12.50;65.09
21706;BME280;11014;53.076;18.208;2023-03-22T02:49:22;100954.53;;;12.59;64.84
21706;BME280;11014;53.076;18.208;2023-03-22T02:52:14;100951.69;;;12.54;65.01
21706;BME280;11014;53.076;18.208;2023-03-22T02:57:55;100950.19;;;12.58;64.78
21706;BME280;11014;53.076;18.208;2023-03-22T03:00:26;100951.69;;;12.54;64.68
21706;BME280;11014;53.076;18.208;2023-03-22T03:03:00;100947.59;;;12.52;64.87
21706;BME280;11014;53.076;18.208;2023-03-22T03:05:41;100939.88;;;12.55;64.94
21706;BME280;11014;53.076;18.208;2023-03-22T03:08:14;100940.44;;;12.57;64.99
21706;BME280;11014;53.076;18.208;2023-03-22T03:10:45;100940.44;;;12.57;64.83
21706;BME280;11014;53.076;18.208;2023-03-22T03:13:15;100934.47;;;12.55;64.87
21706;BME280;11014;53.076;18.208;2023-03-22T03:15:53;100937.88;;;12.62;65.20
21706;BME280;11014;53.076;18.208;2023-03-22T03:18:39;100946.75;;;12.74;64.98
21706;BME280;11014;53.076;18.208;2023-03-22T03:27:18;100940.06;;;12.77;64.49
21706;BME280;11014;53.076;18.208;2023-03-22T03:29:46;100943.34;;;12.79;64.37
21706;BME280;11014;53.076;18.208;2023-03-22T03:32:22;100942.41;;;12.73;64.40
21706;BME280;11014;53.076;18.208;2023-03-22T03:34:58;100942.41;;;12.73;64.52
21706;BME280;11014;53.076;18.208;2023-03-22T03:37:46;100938.78;;;12.79;64.89
21706;BME280;11014;53.076;18.208;2023-03-22T03:40:21;100937.16;;;12.78;64.72
21706;BME280;11014;53.076;18.208;2023-03-22T03:42:52;100939.25;;;12.76;64.73
21706;BME280;11014;53.076;18.208;2023-03-22T03:45:24;100933.38;;;12.79;64.79
21706;BME280;11014;53.076;18.208;2023-03-22T03:47:57;100929.66;;;12.80;64.94
21706;BME280;11014;53.076;18.208;2023-03-22T03:50:29;100931.41;;;12.86;64.97
21706;BME280;11014;53.076;18.208;2023-03-22T03:52:59;100936.88;;;12.91;64.83
21706;BME280;11014;53.076;18.208;2023-03-22T03:55:29;100925.63;;;12.94;65.17
21706;BME280;11014;53.076;18.208;2023-03-22T03:57:59;100926.78;;;12.98;65.00
21706;BME280;11014;53.076;18.208;2023-03-22T04:00:28;100925.72;;;12.99;64.99
21706;BME280;11014;53.076;18.208;2023-03-22T04:03:16;100918.78;;;13.03;65.03
21706;BME280;11014;53.076;18.208;2023-03-22T04:06:20;100920.44;;;13.04;64.88
21706;BME280;11014;53.076;18.208;2023-03-22T04:08:54;100915.03;;;13.04;65.20
21706;BME280;11014;53.076;18.208;2023-03-22T04:11:28;100912.09;;;13.06;65.45
21706;BME280;11014;53.076;18.208;2023-03-22T04:14:00;100909.22;;;13.07;65.18
21706;BME280;11014;53.076;18.208;2023-03-22T04:16:29;100909.22;;;13.07;65.26
21706;BME280;11014;53.076;18.208;2023-03-22T04:18:58;100907.53;;;13.06;65.62
21706;BME280;11014;53.076;18.208;2023-03-22T04:21:26;100911.31;;;13.05;65.81
21706;BME280;11014;53.076;18.208;2023-03-22T04:24:00;100910.22;;;13.06;65.89
21706;BME280;11014;53.076;18.208;2023-03-22T04:26:35;100906.38;;;13.02;66.00
21706;BME280;11014;53.076;18.208;2023-03-22T04:29:24;100908.47;;;13.00;66.05
21706;BME280;11014;53.076;18.208;2023-03-22T04:31:59;100905.22;;;12.98;66.28
21706;BME280;11014;53.076;18.208;2023-03-22T04:34:38;100900.63;;;12.99;66.09
21706;BME280;11014;53.076;18.208;2023-03-22T04:37:12;100899.59;;;13.00;66.45
21706;BME280;11014;53.076;18.208;2023-03-22T04:39:49;100905.69;;;12.95;66.15
21706;BME280;11014;53.076;18.208;2023-03-22T04:42:36;100898.88;;;12.93;66.61
21706;BME280;11014;53.076;18.208;2023-03-22T04:45:13;100898.06;;;12.92;66.62
21706;BME280;11014;53.076;18.208;2023-03-22T04:47:45;100895.88;;;12.89;66.64
21706;BME280;11014;53.076;18.208;2023-03-22T04:50:16;100892.34;;;12.89;66.61
21706;BME280;11014;53.076;18.208;2023-03-22T04:52:52;100881.78;;;12.87;66.66
21706;BME280;11014;53.076;18.208;2023-03-22T04:55:21;100889.31;;;12.85;67.07
21706;BME280;11014;53.076;18.208;2023-03-22T04:57:50;100873.13;;;12.85;66.79
21706;BME280;11014;53.076;18.208;2023-03-22T05:00:24;100876.41;;;12.87;67.20
21706;BME280;11014;53.076;18.208;2023-03-22T05:02:53;100882.03;;;12.86;67.16
21706;BME280;11014;53.076;18.208;2023-03-22T05:05:54;100876.41;;;12.87;67.31
21706;BME280;11014;53.076;18.208;2023-03-22T05:08:29;100871.47;;;12.84;67.18
21706;BME280;11014;53.076;18.208;2023-03-22T05:11:03;100876.41;;;12.87;67.32
21706;BME280;11014;53.076;18.208;2023-03-22T05:14:16;100875.72;;;12.92;67.00
21706;BME280;11014;53.076;18.208;2023-03-22T05:16:45;100869.72;;;12.90;67.23
21706;BME280;11014;53.076;18.208;2023-03-22T05:19:14;100876.75;;;12.91;67.17
21706;BME280;11014;53.076;18.208;2023-03-22T05:21:48;100867.28;;;12.88;67.32
21706;BME280;11014;53.076;18.208;2023-03-22T05:24:17;100860.22;;;12.87;67.39
21706;BME280;11014;53.076;18.208;2023-03-22T05:26:48;100863.03;;;12.92;67.47
21706;BME280;11014;53.076;18.208;2023-03-22T05:29:24;100868.41;;;12.92;67.56
21706;BME280;11014;53.076;18.208;2023-03-22T05:32:06;100874.63;;;12.93;67.44
21706;BME280;11014;53.076;18.208;2023-03-22T05:34:35;100872.19;;;12.91;67.80
21706;BME280;11014;53.076;18.208;2023-03-22T05:37:23;100866.78;;;12.91;67.97
21706;BME280;11014;53.076;18.208;2023-03-22T05:39:56;100861.06;;;12.88;67.76
21706;BME280;11014;53.076;18.208;2023-03-22T05:42:36;100864.56;;;12.88;68.17
21706;BME280;11014;53.076;18.208;2023-03-22T05:45:14;100870.19;;;12.87;68.33
21706;BME280;11014;53.076;18.208;2023-03-22T05:47:48;100874.78;;;12.86;68.66
21706;BME280;11014;53.076;18.208;2023-03-22T05:50:45;100870.53;;;12.90;68.76
21706;BME280;11014;53.076;18.208;2023-03-22T05:53:14;100868.41;;;12.92;68.79
21706;BME280;11014;53.076;18.208;2023-03-22T05:56:03;100865.50;;;12.94;68.87
21706;BME280;11014;53.076;18.208;2023-03-22T05:58:34;100874.97;;;12.96;68.78
21706;BME280;11014;53.076;18.208;2023-03-22T06:01:08;100871.22;;;12.97;68.82
21706;BME280;11014;53.076;18.208;2023-03-22T06:03:59;100872.84;;;12.98;68.67
21706;BME280;11014;53.076;18.208;2023-03-22T06:06:34;100870.72;;;13.00;68.91
21706;BME280;11014;53.076;18.208;2023-03-22T06:09:12;100876.38;;;12.99;68.92
21706;BME280;11014;53.076;18.208;2023-03-22T06:11:49;100872.84;;;12.98;69.41
21706;BME280;11014;53.076;18.208;2023-03-22T06:14:18;100872.84;;;12.98;69.43
21706;BME280;11014;53.076;18.208;2023-03-22T06:17:05;100859.94;;;13.00;69.35
21706;BME280;11014;53.076;18.208;2023-03-22T06:19:34;100862.88;;;12.99;69.83
21706;BME280;11014;53.076;18.208;2023-03-22T06:22:05;100868.63;;;13.02;69.67
21706;BME280;11014;53.076;18.208;2023-03-22T06:24:36;100873.88;;;13.09;69.83
21706;BME280;11014;53.076;18.208;2023-03-22T06:27:06;100870.97;;;13.11;70.00
21706;BME280;11014;53.076;18.208;2023-03-22T06:29:36;100870.97;;;13.11;69.89
21706;BME280;11014;53.076;18.208;2023-03-22T06:32:06;100869.31;;;13.10;70.08
21706;BME280;11014;53.076;18.208;2023-03-22T06:34:35;100875.28;;;13.12;69.98
21706;BME280;11014;53.076;18.208;2023-03-22T06:37:04;100877.75;;;13.13;70.30
21706;BME280;11014;53.076;18.208;2023-03-22T06:39:37;100883.50;;;13.17;70.39
21706;BME280;11014;53.076;18.208;2023-03-22T06:42:06;100869.03;;;13.23;70.09
21706;BME280;11014;53.076;18.208;2023-03-22T06:44:35;100877.72;;;13.25;70.34
21706;BME280;11014;53.076;18.208;2023-03-22T06:47:14;100871.84;;;13.28;70.58
21706;BME280;11014;53.076;18.208;2023-03-22T06:49:50;100875.09;;;13.30;70.43
21706;BME280;11014;53.076;18.208;2023-03-22T06:52:25;100865.53;;;13.39;70.80
21706;BME280;11014;53.076;18.208;2023-03-22T06:54:55;100861.56;;;13.41;70.51
21706;BME280;11014;53.076;18.208;2023-03-22T06:57:24;100866.13;;;13.41;70.87
21706;BME280;11014;53.076;18.208;2023-03-22T06:59:53;100871.53;;;13.41;71.13
21706;BME280;11014;53.076;18.208;2023-03-22T07:02:21;100877.13;;;13.68;70.44
21706;BME280;11014;53.076;18.208;2023-03-22T07:05:14;100869.94;;;13.90;69.64
21706;BME280;11014;53.076;18.208;2023-03-22T07:07:42;100870.56;;;13.63;69.95
21706;BME280;11014;53.076;18.208;2023-03-22T07:10:11;100874.34;;;13.62;70.67
21706;BME280;11014;53.076;18.208;2023-03-22T07:12:40;100858.47;;;13.66;71.08
21706;BME280;11014;53.076;18.208;2023-03-22T07:15:12;100866.19;;;13.74;71.14
21706;BME280;11014;53.076;18.208;2023-03-22T07:17:51;100865.66;;;13.77;70.89
21706;BME280;11014;53.076;18.208;2023-03-22T07:20:20;100874.34;;;13.79;70.99
21706;BME280;11014;53.076;18.208;2023-03-22T07:22:50;100868.13;;;13.79;71.34
21706;BME280;11014;53.076;18.208;2023-03-22T07:25:21;100861.50;;;13.86;71.18
21706;BME280;11014;53.076;18.208;2023-03-22T07:27:59;100851.38;;;13.93;71.13
21706;BME280;11014;53.076;18.208;2023-03-22T07:30:28;100850.34;;;13.99;71.09
21706;BME280;11014;53.076;18.208;2023-03-22T07:32:56;100855.25;;;14.02;71.18
21706;BME280;11014;53.076;18.208;2023-03-22T07:35:26;100849.94;;;14.07;71.39
21706;BME280;11014;53.076;18.208;2023-03-22T07:37:55;100851.56;;;14.08;71.74
21706;BME280;11014;53.076;18.208;2023-03-22T07:40:30;100847.91;;;14.14;71.45
21706;BME280;11014;53.076;18.208;2023-03-22T07:42:59;100846.31;;;14.18;71.18
21706;BME280;11014;53.076;18.208;2023-03-22T07:46:03;100860.31;;;14.15;71.63
21706;BME280;11014;53.076;18.208;2023-03-22T07:48:34;100858.63;;;14.09;71.65
21706;BME280;11014;53.076;18.208;2023-03-22T07:51:38;100861.50;;;13.86;72.86
21706;BME280;11014;53.076;18.208;2023-03-22T07:54:07;100869.66;;;13.91;73.05
21706;BME280;11014;53.076;18.208;2023-03-22T07:56:35;100867.38;;;13.83;73.46
21706;BME280;11014;53.076;18.208;2023-03-22T07:59:04;100859.28;;;13.83;73.34
21706;BME280;11014;53.076;18.208;2023-03-22T08:01:34;100864.38;;;13.80;73.54
21706;BME280;11014;53.076;18.208;2023-03-22T08:04:21;100855.38;;;13.74;73.77
21706;BME280;11014;53.076;18.208;2023-03-22T08:06:57;100863.38;;;13.69;74.00
21706;BME280;11014;53.076;18.208;2023-03-22T08:09:28;100853.59;;;13.80;73.80
21706;BME280;11014;53.076;18.208;2023-03-22T08:11:57;100856.16;;;13.91;73.43
21706;BME280;11014;53.076;18.208;2023-03-22T08:14:26;100860.75;;;13.91;73.58
21706;BME280;11014;53.076;18.208;2023-03-22T08:17:05;100858.78;;;13.86;73.94
21706;BME280;11014;53.076;18.208;2023-03-22T08:19:34;100856.66;;;13.88;73.83
21706;BME280;11014;53.076;18.208;2023-03-22T08:22:07;100855.53;;;14.01;73.56
21706;BME280;11014;53.076;18.208;2023-03-22T08:24:54;100863.53;;;14.12;72.88
21706;BME280;11014;53.076;18.208;2023-03-22T08:27:29;100854.69;;;14.00;73.28
21706;BME280;11014;53.076;18.208;2023-03-22T08:29:59;100866.97;;;13.91;74.00
21706;BME280;11014;53.076;18.208;2023-03-22T08:32:28;100862.25;;;13.98;73.97
21706;BME280;11014;53.076;18.208;2023-03-22T08:34:57;100864.44;;;14.01;74.20
21706;BME280;11014;53.076;18.208;2023-03-22T08:37:26;100869.25;;;13.99;74.33
21706;BME280;11014;53.076;18.208;2023-03-22T08:39:55;100866.13;;;14.07;74.08
21706;BME280;11014;53.076;18.208;2023-03-22T08:42:40;100873.75;;;14.10;73.91
21706;BME280;11014;53.076;18.208;2023-03-22T08:45:09;100878.09;;;14.11;73.45
21706;BME280;11014;53.076;18.208;2023-03-22T08:47:47;100870.69;;;14.23;73.07
21706;BME280;11014;53.076;18.208;2023-03-22T08:50:18;100873.84;;;14.32;72.90
21706;BME280;11014;53.076;18.208;2023-03-22T08:52:54;100872.00;;;14.38;72.57
21706;BME280;11014;53.076;18.208;2023-03-22T08:55:30;100866.94;;;14.24;72.75
21706;BME280;11014;53.076;18.208;2023-03-22T08:58:12;100874.16;;;14.36;72.59
21706;BME280;11014;53.076;18.208;2023-03-22T09:00:55;100880.06;;;14.33;72.49
21706;BME280;11014;53.076;18.208;2023-03-22T09:42:44;100841.28;;;14.87;77.66
21706;BME280;11014;53.076;18.208;2023-03-22T09:50:20;100842.53;;;15.01;74.37
21706;BME280;11014;53.076;18.208;2023-03-22T09:52:52;100835.28;;;15.07;74.40
21706;BME280;11014;53.076;18.208;2023-03-22T09:58:37;100833.41;;;15.07;73.54
21706;BME280;11014;53.076;18.208;2023-03-22T10:06:49;100824.59;;;15.22;73.36
21706;BME280;11014;53.076;18.208;2023-03-22T10:09:33;100822.31;;;15.35;73.40
21706;BME280;11014;53.076;18.208;2023-03-22T10:12:22;100824.72;;;15.59;72.84
21706;BME280;11014;53.076;18.208;2023-03-22T10:15:14;100827.47;;;15.64;71.73
21706;BME280;11014;53.076;18.208;2023-03-22T10:17:48;100817.16;;;15.61;71.57
21706;BME280;11014;53.076;18.208;2023-03-22T10:20:35;100827.63;;;15.52;71.40
21706;BME280;11014;53.076;18.208;2023-03-22T10:23:11;100826.75;;;15.47;72.31
21706;BME280;11014;53.076;18.208;2023-03-22T10:25:42;100825.63;;;15.42;72.54
21706;BME280;11014;53.076;18.208;2023-03-22T10:28:40;100823.53;;;15.50;72.34
21706;BME280;11014;53.076;18.208;2023-03-22T10:31:18;100825.19;;;15.51;72.28
21706;BME280;11014;53.076;18.208;2023-03-22T10:36:20;100836.88;;;15.56;71.75
21706;BME280;11014;53.076;18.208;2023-03-22T10:38:53;100818.06;;;15.44;71.71
21706;BME280;11014;53.076;18.208;2023-03-22T10:41:32;100830.44;;;15.62;71.48
21706;BME280;11014;53.076;18.208;2023-03-22T10:44:04;100822.91;;;15.69;71.26
21706;BME280;11014;53.076;18.208;2023-03-22T10:46:38;100822.13;;;15.74;71.40
21706;BME280;11014;53.076;18.208;2023-03-22T10:49:13;100818.47;;;15.90;70.97
21706;BME280;11014;53.076;18.208;2023-03-22T10:51:48;100812.50;;;15.93;71.07
21706;BME280;11014;53.076;18.208;2023-03-22T10:54:19;100813.25;;;16.25;70.39
21706;BME280;11014;53.076;18.208;2023-03-22T10:56:48;100810.72;;;16.55;69.60
21706;BME280;11014;53.076;18.208;2023-03-22T10:59:46;100817.31;;;16.80;68.24
21706;BME280;11014;53.076;18.208;2023-03-22T11:02:27;100813.56;;;16.91;67.81
21706;BME280;11014;53.076;18.208;2023-03-22T11:05:00;100802.72;;;16.96;67.18
21706;BME280;11014;53.076;18.208;2023-03-22T11:07:37;100806.78;;;16.98;66.81
21706;BME280;11014;53.076;18.208;2023-03-22T11:10:31;100800.53;;;16.93;66.21
21706;BME280;11014;53.076;18.208;2023-03-22T11:15:42;100805.38;;;16.81;65.61
21706;BME280;11014;53.076;18.208;2023-03-22T11:18:17;100804.81;;;16.74;65.35
21706;BME280;11014;53.076;18.208;2023-03-22T11:21:13;100797.28;;;16.96;65.14
21706;BME280;11014;53.076;18.208;2023-03-22T11:24:02;100795.44;;;17.27;64.48
21706;BME280;11014;53.076;18.208;2023-03-22T11:26:33;100788.13;;;17.37;64.29
21706;BME280;11014;53.076;18.208;2023-03-22T11:29:16;100791.91;;;17.41;63.27
21706;BME280;11014;53.076;18.208;2023-03-22T11:31:56;100789.22;;;17.61;63.04
21706;BME280;11014;53.076;18.208;2023-03-22T11:34:28;100782.69;;;17.77;63.13
21706;BME280;11014;53.076;18.208;2023-03-22T11:37:00;100785.38;;;18.03;62.05
21706;BME280;11014;53.076;18.208;2023-03-22T11:39:45;100782.66;;;18.03;62.43
21706;BME280;11014;53.076;18.208;2023-03-22T11:42:18;100777.78;;;17.95;61.06
21706;BME280;11014;53.076;18.208;2023-03-22T11:44:48;100773.41;;;17.99;60.83
21706;BME280;11014;53.076;18.208;2023-03-22T11:47:17;100769.28;;;18.06;60.17
21706;BME280;11014;53.076;18.208;2023-03-22T11:49:49;100755.69;;;18.21;59.92
21706;BME280;11014;53.076;18.208;2023-03-22T11:52:22;100750.75;;;18.23;59.11
21706;BME280;11014;53.076;18.208;2023-03-22T11:54:52;100752.06;;;18.36;58.81
21706;BME280;11014;53.076;18.208;2023-03-22T11:57:27;100743.91;;;18.41;57.94
21706;BME280;11014;53.076;18.208;2023-03-22T12:02:57;100750.91;;;18.62;57.29
21706;BME280;11014;53.076;18.208;2023-03-22T12:05:31;100749.25;;;18.61;56.95
21706;BME280;11014;53.076;18.208;2023-03-22T12:08:40;100748.16;;;18.67;56.30
21706;BME280;11014;53.076;18.208;2023-03-22T12:11:24;100749.75;;;18.73;56.17
21706;BME280;11014;53.076;18.208;2023-03-22T12:16:31;100751.94;;;18.66;56.13
21706;BME280;11014;53.076;18.208;2023-03-22T12:19:16;100735.13;;;18.59;55.90
21706;BME280;11014;53.076;18.208;2023-03-22T12:21:48;100744.50;;;18.23;55.97
21706;BME280;11014;53.076;18.208;2023-03-22T12:24:29;100744.03;;;18.06;55.78
21706;BME280;11014;53.076;18.208;2023-03-22T12:27:16;100746.66;;;18.26;55.87
21706;BME280;11014;53.076;18.208;2023-03-22T12:36:19;100759.19;;;18.27;56.39
21706;BME280;11014;53.076;18.208;2023-03-22T12:38:54;100761.38;;;18.20;56.40
21706;BME280;11014;53.076;18.208;2023-03-22T12:41:36;100759.66;;;18.44;56.55
21706;BME280;11014;53.076;18.208;2023-03-22T12:44:16;100752.72;;;18.77;55.89
21706;BME280;11014;53.076;18.208;2023-03-22T12:46:49;100759.28;;;18.71;55.47
21706;BME280;11014;53.076;18.208;2023-03-22T12:49:37;100750.88;;;18.67;55.64
21706;BME280;11014;53.076;18.208;2023-03-22T12:54:46;100756.34;;;18.62;55.61
21706;BME280;11014;53.076;18.208;2023-03-22T12:57:17;100758.50;;;18.65;55.42
21706;BME280;11014;53.076;18.208;2023-03-22T12:59:49;100737.78;;;18.69;55.03
21706;BME280;11014;53.076;18.208;2023-03-22T13:02:24;100743.13;;;18.89;54.47
21706;BME280;11014;53.076;18.208;2023-03-22T13:05:05;100743.56;;;19.02;54.39
21706;BME280;11014;53.076;18.208;2023-03-22T13:07:49;100738.72;;;18.93;54.92
21706;BME280;11014;53.076;18.208;2023-03-22T13:15:38;100731.69;;;18.87;53.89
21706;BME280;11014;53.076;18.208;2023-03-22T13:21:13;100723.97;;;19.00;53.66
21706;BME280;11014;53.076;18.208;2023-03-22T13:26:44;100705.44;;;19.02;53.42
21706;BME280;11014;53.076;18.208;2023-03-22T13:29:35;100700.59;;;18.99;54.31
21706;BME280;11014;53.076;18.208;2023-03-22T13:32:28;100692.28;;;19.14;53.98
21706;BME280;11014;53.076;18.208;2023-03-22T13:34:58;100689.44;;;19.29;53.71
21706;BME280;11014;53.076;18.208;2023-03-22T13:37:33;100678.94;;;19.46;53.16
21706;BME280;11014;53.076;18.208;2023-03-22T13:40:27;100675.13;;;19.47;52.95
21706;BME280;11014;53.076;18.208;2023-03-22T13:54:15;100658.53;;;20.15;51.53
21706;BME280;11014;53.076;18.208;2023-03-22T13:56:46;100649.44;;;20.00;51.29
21706;BME280;11014;53.076;18.208;2023-03-22T14:02:23;100655.78;;;19.72;50.96
21706;BME280;11014;53.076;18.208;2023-03-22T14:04:57;100655.09;;;19.62;51.24
21706;BME280;11014;53.076;18.208;2023-03-22T14:07:41;100647.66;;;19.67;52.06
21706;BME280;11014;53.076;18.208;2023-03-22T14:10:40;100644.75;;;19.82;51.61
21706;BME280;11014;53.076;18.208;2023-03-22T14:13:21;100639.75;;;20.13;51.02
21706;BME280;11014;53.076;18.208;2023-03-22T14:16:07;100629.03;;;20.40;50.19
21706;BME280;11014;53.076;18.208;2023-03-22T14:18:42;100637.94;;;20.46;49.91
21706;BME280;11014;53.076;18.208;2023-03-22T14:21:15;100637.94;;;20.46;50.09
21706;BME280;11014;53.076;18.208;2023-03-22T14:23:48;100626.16;;;20.32;49.84
21706;BME280;11014;53.076;18.208;2023-03-22T14:26:23;100628.69;;;20.23;50.09
21706;BME280;11014;53.076;18.208;2023-03-22T14:28:51;100627.56;;;20.05;49.94
21706;BME280;11014;53.076;18.208;2023-03-22T14:31:26;100630.41;;;19.95;50.35
21706;BME280;11014;53.076;18.208;2023-03-22T14:34:00;100638.38;;;19.68;50.98
21706;BME280;11014;53.076;18.208;2023-03-22T14:36:34;100634.56;;;19.69;50.21
21706;BME280;11014;53.076;18.208;2023-03-22T14:39:24;100631.78;;;19.74;50.44
21706;BME280;11014;53.076;18.208;2023-03-22T14:42:06;100636.59;;;19.82;50.46
21706;BME280;11014;53.076;18.208;2023-03-22T14:44:40;100637.09;;;19.84;50.81
21706;BME280;11014;53.076;18.208;2023-03-22T14:47:16;100632.22;;;19.81;50.92
21706;BME280;11014;53.076;18.208;2023-03-22T14:49:45;100632.34;;;19.71;50.89
21706;BME280;11014;53.076;18.208;2023-03-22T14:52:19;100636.75;;;19.67;51.19
21706;BME280;11014;53.076;18.208;2023-03-22T14:54:50;100632.25;;;19.58;50.98
21706;BME280;11014;53.076;18.208;2023-03-22T14:57:19;100632.56;;;19.51;50.96
21706;BME280;11014;53.076;18.208;2023-03-22T14:59:49;100634.78;;;19.49;51.57
21706;BME280;11014;53.076;18.208;2023-03-22T15:04:52;100628.19;;;19.55;51.91
21706;BME280;11014;53.076;18.208;2023-03-22T15:07:20;100622.16;;;19.58;51.94
21706;BME280;11014;53.076;18.208;2023-03-22T15:09:48;100615.66;;;19.54;51.78
21706;BME280;11014;53.076;18.208;2023-03-22T15:12:16;100607.91;;;19.42;51.69
21706;BME280;11014;53.076;18.208;2023-03-22T15:14:44;100601.66;;;19.37;51.84
21706;BME280;11014;53.076;18.208;2023-03-22T15:17:13;100609.34;;;19.30;52.17
21706;BME280;11014;53.076;18.208;2023-03-22T15:19:49;100600.66;;;19.28;52.17
21706;BME280;11014;53.076;18.208;2023-03-22T15:22:19;100612.19;;;19.20;52.35
21706;BME280;11014;53.076;18.208;2023-03-22T15:24:58;100608.69;;;19.14;52.79
21706;BME280;11014;53.076;18.208;2023-03-22T15:27:29;100612.25;;;19.15;52.73
21706;BME280;11014;53.076;18.208;2023-03-22T15:30:00;100610.03;;;19.17;52.88
21706;BME280;11014;53.076;18.208;2023-03-22T15:32:28;100607.06;;;19.13;52.69